createdAt,value
2023-01-30T00:00:43.552Z,86.77
2023-01-30T00:03:01.134Z,86.57
2023-01-30T00:05:18.016Z,86.96
2023-01-30T00:07:36.068Z,87.27
2023-01-30T00:09:53.533Z,87.00
2023-01-30T00:12:11.642Z,86.44
2023-01-30T00:14:28.641Z,86.73
2023-01-30T00:16:45.727Z,87.18
2023-01-30T00:19:03.055Z,87.00
2023-01-30T00:21:20.353Z,87.18
2023-01-30T00:23:40.172Z,87.24
2023-01-30T00:25:57.368Z,87.35
2023-01-30T00:28:15.720Z,87.78
2023-01-30T00:30:33.088Z,87.75
2023-01-30T00:32:51.290Z,87.73
2023-01-30T00:35:08.451Z,88.10
2023-01-30T00:37:28.107Z,87.91
2023-01-30T00:39:45.307Z,87.69
2023-01-30T00:42:02.430Z,88.26
2023-01-30T00:44:19.552Z,87.59
2023-01-30T00:46:38.707Z,88.11
2023-01-30T00:48:55.651Z,87.80
2023-01-30T00:51:12.765Z,88.55
2023-01-30T00:53:29.937Z,88.46
2023-01-30T00:55:46.930Z,88.10
2023-01-30T00:58:04.142Z,88.03
2023-01-30T01:00:21.426Z,88.66
2023-01-30T01:02:38.613Z,88.64
2023-01-30T01:04:56.026Z,87.93
2023-01-30T01:07:15.798Z,87.86
2023-01-30T01:09:32.885Z,87.99
2023-01-30T01:11:49.943Z,87.68
2023-01-30T01:14:07.040Z,87.80
2023-01-30T01:16:24.505Z,88.25
2023-01-30T01:18:42.814Z,87.93
2023-01-30T01:21:00.408Z,87.63
2023-01-30T01:23:18.782Z,88.08
2023-01-30T01:25:35.952Z,87.85
2023-01-30T01:27:53.751Z,87.77
2023-01-30T01:30:10.925Z,88.11
2023-01-30T01:32:29.281Z,87.83
2023-01-30T01:34:46.719Z,88.49
2023-01-30T01:37:04.057Z,88.66
2023-01-30T01:39:21.110Z,88.27
2023-01-30T01:41:38.246Z,88.39
2023-01-30T01:43:55.787Z,88.88
2023-01-30T01:46:12.956Z,88.60
2023-01-30T01:48:30.891Z,88.49
2023-01-30T01:50:49.015Z,88.49
2023-01-30T01:53:06.084Z,87.91
2023-01-30T01:55:23.415Z,88.59
2023-01-30T01:57:40.527Z,88.32
2023-01-30T01:59:58.829Z,87.58
2023-01-30T02:02:16.231Z,87.72
2023-01-30T02:04:36.052Z,87.85
2023-01-30T02:06:53.135Z,88.39
2023-01-30T02:09:10.538Z,87.60
2023-01-30T02:11:27.472Z,88.41
2023-01-30T02:13:44.408Z,87.74
2023-01-30T02:16:01.523Z,88.05
2023-01-30T02:18:18.917Z,88.05
2023-01-30T02:20:37.136Z,87.81
2023-01-30T02:22:54.253Z,88.29
2023-01-30T02:25:11.296Z,88.79
2023-01-30T02:27:28.626Z,88.57
2023-01-30T02:29:45.730Z,88.24
2023-01-30T02:32:02.874Z,88.52
2023-01-30T02:34:21.197Z,88.71
2023-01-30T02:36:38.433Z,88.71
2023-01-30T02:38:55.782Z,88.27
2023-01-30T02:41:12.927Z,87.98
2023-01-30T02:43:32.261Z,87.64
2023-01-30T02:45:49.289Z,88.04
2023-01-30T02:48:06.278Z,88.38
2023-01-30T02:50:23.297Z,88.50
2023-01-30T02:52:42.929Z,88.68
2023-01-30T02:55:00.157Z,88.66
2023-01-30T02:57:17.209Z,88.49
2023-01-30T02:59:34.830Z,88.82
2023-01-30T03:01:51.908Z,88.21
2023-01-30T03:04:09.124Z,88.78
2023-01-30T03:06:26.260Z,88.85
2023-01-30T03:08:43.492Z,89.25
2023-01-30T03:11:00.731Z,89.11
2023-01-30T03:13:18.007Z,88.75
2023-01-30T03:15:35.356Z,88.73
2023-01-30T03:17:52.667Z,88.12
2023-01-30T03:20:11.719Z,88.22
2023-01-30T03:22:28.710Z,88.74
2023-01-30T03:24:45.785Z,88.55
2023-01-30T03:27:03.119Z,88.63
2023-01-30T03:29:20.390Z,88.78
2023-01-30T03:31:37.728Z,88.38
2023-01-30T03:33:54.846Z,89.00
2023-01-30T03:36:12.779Z,88.95
2023-01-30T03:38:30.077Z,88.96
2023-01-30T03:40:47.353Z,88.96
2023-01-30T03:43:04.673Z,88.68
2023-01-30T03:45:21.708Z,88.65
2023-01-30T03:47:39.004Z,88.63
2023-01-30T03:49:56.012Z,88.66
2023-01-30T03:52:13.526Z,88.38
2023-01-30T03:54:30.575Z,87.89
2023-01-30T03:56:47.802Z,88.35
2023-01-30T03:59:05.118Z,88.10
2023-01-30T04:01:22.239Z,88.36
2023-01-30T04:03:39.297Z,87.84
2023-01-30T04:05:56.815Z,88.54
2023-01-30T04:08:15.121Z,88.52
2023-01-30T04:10:32.348Z,88.62
2023-01-30T04:12:50.453Z,88.13
2023-01-30T04:15:07.416Z,88.48
2023-01-30T04:17:26.470Z,88.71
2023-01-30T04:19:43.764Z,88.91
2023-01-30T04:22:00.832Z,88.91
2023-01-30T04:24:17.834Z,88.79
2023-01-30T04:26:36.033Z,89.11
2023-01-30T04:28:53.619Z,88.57
2023-01-30T04:31:13.022Z,89.12
2023-01-30T04:33:30.335Z,89.25
2023-01-30T04:35:47.370Z,89.09
2023-01-30T04:38:04.542Z,89.25
2023-01-30T04:40:21.765Z,89.34
2023-01-30T04:42:38.760Z,89.91
2023-01-30T04:44:55.783Z,89.98
2023-01-30T04:47:13.054Z,89.67
2023-01-30T04:49:30.326Z,89.60
2023-01-30T04:51:47.398Z,89.85
2023-01-30T04:54:04.690Z,89.23
2023-01-30T04:56:21.773Z,89.60
2023-01-30T04:58:38.992Z,89.77
2023-01-30T05:00:56.095Z,89.95
2023-01-30T05:03:13.549Z,89.79
2023-01-30T05:05:30.595Z,89.56
2023-01-30T05:07:47.600Z,89.64
2023-01-30T05:10:04.861Z,89.80
2023-01-30T05:12:22.108Z,89.60
2023-01-30T05:14:39.357Z,89.66
2023-01-30T05:16:56.444Z,89.44
2023-01-30T05:19:13.904Z,89.47
2023-01-30T05:21:31.847Z,89.13
2023-01-30T05:23:48.822Z,89.53
2023-01-30T05:26:06.886Z,89.26
2023-01-30T05:28:23.952Z,89.05
2023-01-30T05:30:42.241Z,88.89
2023-01-30T05:33:00.173Z,89.37
2023-01-30T05:35:18.756Z,89.27
2023-01-30T05:37:35.864Z,89.33
2023-01-30T05:39:53.872Z,88.92
2023-01-30T05:42:11.135Z,88.46
2023-01-30T05:44:28.423Z,89.25
2023-01-30T05:46:46.397Z,89.24
2023-01-30T05:49:04.621Z,88.79
2023-01-30T05:51:21.938Z,88.91
2023-01-30T05:53:39.020Z,88.90
2023-01-30T05:55:56.103Z,88.92
2023-01-30T05:58:13.059Z,88.90
2023-01-30T06:00:30.447Z,89.14
2023-01-30T06:02:48.760Z,89.60
2023-01-30T06:05:05.807Z,89.74
2023-01-30T06:07:23.872Z,88.50
2023-01-30T06:09:41.890Z,88.49
2023-01-30T06:11:58.868Z,89.29
2023-01-30T06:14:15.799Z,88.84
2023-01-30T06:16:32.883Z,89.32
2023-01-30T06:18:50.369Z,89.06
2023-01-30T06:21:07.405Z,89.53
2023-01-30T06:23:24.712Z,90.19
2023-01-30T06:25:41.783Z,89.66
2023-01-30T06:27:59.033Z,89.37
2023-01-30T06:30:16.068Z,89.55
2023-01-30T06:32:33.048Z,89.83
2023-01-30T06:34:51.153Z,89.61
2023-01-30T06:37:08.500Z,89.20
2023-01-30T06:39:25.764Z,88.82
2023-01-30T06:41:42.800Z,88.99
2023-01-30T06:44:00.998Z,89.40
2023-01-30T06:46:18.335Z,88.19
2023-01-30T06:48:35.801Z,88.70
2023-01-30T06:50:53.141Z,89.11
2023-01-30T06:53:10.528Z,89.11
2023-01-30T06:55:27.702Z,89.33
2023-01-30T06:57:44.977Z,89.19
2023-01-30T07:00:02.300Z,88.57
2023-01-30T07:02:19.362Z,88.15
2023-01-30T07:04:36.653Z,88.29
2023-01-30T07:06:54.012Z,88.43
2023-01-30T07:09:11.040Z,88.78
2023-01-30T07:11:28.349Z,89.18
2023-01-30T07:13:45.448Z,88.78
2023-01-30T07:16:02.513Z,89.80
2023-01-30T07:18:19.447Z,89.04
2023-01-30T07:20:36.520Z,89.19
2023-01-30T07:22:53.928Z,89.33
2023-01-30T07:25:11.222Z,89.49
2023-01-30T07:27:28.541Z,89.90
2023-01-30T07:29:45.523Z,90.59
2023-01-30T07:32:02.878Z,90.29
2023-01-30T07:34:19.921Z,90.56
2023-01-30T07:36:36.963Z,90.23
2023-01-30T07:38:53.873Z,89.31
2023-01-30T07:41:11.109Z,90.32
2023-01-30T07:43:28.042Z,90.11
2023-01-30T07:45:45.124Z,90.42
2023-01-30T07:48:02.014Z,90.04
2023-01-30T07:50:19.404Z,89.95
2023-01-30T07:52:36.574Z,89.31
2023-01-30T07:54:54.888Z,89.83
2023-01-30T07:57:12.179Z,90.00
2023-01-30T07:59:29.283Z,90.09
2023-01-30T08:01:46.515Z,89.45
2023-01-30T08:04:03.605Z,90.39
2023-01-30T08:06:20.898Z,89.82
2023-01-30T08:08:37.957Z,89.93
2023-01-30T08:10:54.966Z,88.71
2023-01-30T08:13:12.081Z,88.75
2023-01-30T08:15:29.094Z,89.23
2023-01-30T08:17:46.367Z,88.09
2023-01-30T08:20:03.654Z,88.16
2023-01-30T08:22:20.944Z,87.77
2023-01-30T08:24:38.002Z,87.90
2023-01-30T08:26:55.077Z,87.92
2023-01-30T08:29:12.292Z,87.46
2023-01-30T08:31:30.307Z,86.64
2023-01-30T08:33:47.313Z,87.29
2023-01-30T08:36:04.391Z,86.80
2023-01-30T08:38:21.423Z,86.78
2023-01-30T08:40:38.689Z,87.18
2023-01-30T08:42:56.907Z,86.96
2023-01-30T08:45:13.806Z,86.45
2023-01-30T08:47:30.833Z,86.51
2023-01-30T08:49:47.857Z,86.14
2023-01-30T08:52:04.896Z,87.01
2023-01-30T08:54:21.974Z,86.79
2023-01-30T08:56:38.967Z,86.31
2023-01-30T08:58:55.919Z,87.26
2023-01-30T09:01:12.888Z,87.62
2023-01-30T09:03:30.924Z,87.44
2023-01-30T09:05:47.865Z,86.44
2023-01-30T09:08:04.747Z,87.14
2023-01-30T09:10:21.895Z,87.43
2023-01-30T09:12:38.996Z,87.30
2023-01-30T09:14:56.008Z,85.69
2023-01-30T09:17:15.443Z,85.23
2023-01-30T09:19:32.474Z,84.33
2023-01-30T09:21:50.765Z,84.62
2023-01-30T09:24:08.967Z,83.46
2023-01-30T09:26:26.922Z,83.23
2023-01-30T09:28:43.779Z,82.33
2023-01-30T09:31:00.878Z,82.28
2023-01-30T09:33:17.977Z,82.42
2023-01-30T09:35:35.861Z,81.91
2023-01-30T09:37:52.859Z,81.92
2023-01-30T09:40:09.849Z,82.02
2023-01-30T09:42:26.883Z,81.79
2023-01-30T09:44:44.174Z,84.16
2023-01-30T09:47:01.155Z,83.03
2023-01-30T09:49:18.384Z,83.19
2023-01-30T09:51:36.645Z,83.98
2023-01-30T09:53:53.661Z,84.06
2023-01-30T09:56:10.890Z,83.94
2023-01-30T09:58:28.290Z,84.68
2023-01-30T10:00:46.566Z,85.03
2023-01-30T10:03:03.572Z,85.31
2023-01-30T10:05:20.631Z,85.25
2023-01-30T10:07:37.696Z,85.73
2023-01-30T10:09:54.750Z,84.20
2023-01-30T10:12:11.776Z,85.30
2023-01-30T10:14:28.876Z,85.15
2023-01-30T10:16:46.178Z,85.28
2023-01-30T10:19:03.083Z,85.35
2023-01-30T10:21:20.000Z,84.17
2023-01-30T10:23:37.059Z,85.01
2023-01-30T10:25:54.294Z,85.35
2023-01-30T10:28:11.316Z,85.33
2023-01-30T10:30:28.723Z,85.20
2023-01-30T10:32:46.023Z,85.81
2023-01-30T10:35:03.031Z,85.25
2023-01-30T10:37:20.068Z,86.50
2023-01-30T10:39:40.842Z,87.13
2023-01-30T10:42:03.715Z,86.67
2023-01-30T10:44:20.747Z,87.05
2023-01-30T10:46:37.849Z,86.80
2023-01-30T10:48:56.504Z,87.14
2023-01-30T10:51:13.551Z,86.34
2023-01-30T10:53:31.591Z,85.71
2023-01-30T10:55:48.835Z,86.88
2023-01-30T10:58:06.036Z,86.77
2023-01-30T11:00:22.969Z,86.93
2023-01-30T11:02:40.097Z,86.49
2023-01-30T11:04:57.375Z,85.83
2023-01-30T11:07:15.607Z,87.68
2023-01-30T11:09:32.579Z,87.84
2023-01-30T11:11:50.823Z,86.70
2023-01-30T11:14:07.818Z,87.33
2023-01-30T11:16:25.126Z,85.94
2023-01-30T11:19:18.216Z,86.78
2023-01-30T11:21:19.397Z,86.49
2023-01-30T11:23:36.395Z,85.76
2023-01-30T11:26:10.150Z,85.58
2023-01-30T11:28:28.561Z,85.89
2023-01-30T11:30:46.937Z,86.44
2023-01-30T11:33:04.953Z,86.24
2023-01-30T11:35:22.091Z,86.98
2023-01-30T11:37:39.031Z,86.37
2023-01-30T11:39:56.387Z,85.97
2023-01-30T11:42:13.671Z,85.40
2023-01-30T11:44:30.674Z,85.87
2023-01-30T11:46:47.976Z,86.33
2023-01-30T11:51:31.644Z,84.96
2023-01-30T11:51:42.155Z,85.57
2023-01-30T11:53:59.401Z,84.70
2023-01-30T11:56:16.688Z,84.92
2023-01-30T11:58:33.943Z,82.54
2023-01-30T12:00:51.195Z,84.23
2023-01-30T12:03:08.166Z,83.97
2023-01-30T12:05:25.586Z,83.62
2023-01-30T12:07:42.456Z,81.81
2023-01-30T12:09:59.485Z,81.89
2023-01-30T12:12:16.558Z,81.92
2023-01-30T12:14:33.490Z,80.62
2023-01-30T12:16:50.591Z,80.92
2023-01-30T12:19:08.591Z,80.06
2023-01-30T12:21:25.829Z,80.13
2023-01-30T12:23:43.133Z,80.43
2023-01-30T12:26:00.442Z,80.04
2023-01-30T12:28:17.484Z,79.70
2023-01-30T12:30:34.440Z,79.72
2023-01-30T12:32:51.708Z,80.29
2023-01-30T12:35:08.680Z,80.02
2023-01-30T12:37:25.721Z,80.09
2023-01-30T12:39:42.785Z,80.00
2023-01-30T12:41:59.988Z,79.36
2023-01-30T12:44:17.095Z,78.22
2023-01-30T12:46:34.213Z,78.91
2023-01-30T12:49:07.649Z,78.58
2023-01-30T12:51:25.402Z,78.21
2023-01-30T12:53:42.447Z,78.89
2023-01-30T12:55:59.414Z,79.39
2023-01-30T12:58:16.448Z,79.48
2023-01-30T13:00:33.687Z,79.25
2023-01-30T13:02:51.677Z,78.09
2023-01-30T13:05:08.804Z,77.95
2023-01-30T13:07:26.746Z,78.61
2023-01-30T13:09:43.760Z,79.90
2023-01-30T13:12:01.800Z,79.14
2023-01-30T13:14:18.834Z,78.22
2023-01-30T13:16:36.162Z,78.44
2023-01-30T13:18:53.459Z,78.23
2023-01-30T13:21:10.405Z,78.05
2023-01-30T13:23:27.447Z,78.09
2023-01-30T13:25:44.647Z,78.43
2023-01-30T13:28:01.712Z,78.06
2023-01-30T13:30:19.134Z,77.48
2023-01-30T13:32:36.360Z,77.80
2023-01-30T13:34:53.597Z,78.26
2023-01-30T13:37:10.928Z,77.59
2023-01-30T13:39:27.996Z,77.72
2023-01-30T13:41:45.081Z,77.97
2023-01-30T13:44:03.899Z,78.23
2023-01-30T13:46:21.030Z,77.98
2023-01-30T13:48:39.391Z,77.32
2023-01-30T13:50:56.736Z,77.29
2023-01-30T13:53:14.097Z,76.84
2023-01-30T13:55:31.335Z,78.40
2023-01-30T13:57:48.295Z,77.96
2023-01-30T14:00:05.370Z,78.10
2023-01-30T14:02:22.542Z,78.79
2023-01-30T14:04:40.872Z,77.89
2023-01-30T14:06:57.968Z,78.77
2023-01-30T14:09:14.967Z,79.26
2023-01-30T14:11:34.110Z,77.75
2023-01-30T14:13:51.640Z,78.20
2023-01-30T14:16:08.790Z,79.04
2023-01-30T14:18:25.816Z,79.57
2023-01-30T14:20:42.815Z,79.50
2023-01-30T14:23:00.124Z,79.50
2023-01-30T14:25:17.401Z,79.98
2023-01-30T14:27:34.703Z,79.98
2023-01-30T14:29:51.894Z,79.28
2023-01-30T14:32:08.986Z,78.27
2023-01-30T14:34:26.398Z,77.78
2023-01-30T14:36:43.691Z,78.22
2023-01-30T14:39:00.997Z,77.15
2023-01-30T14:41:18.869Z,77.06
2023-01-30T14:43:35.929Z,77.22
2023-01-30T14:45:53.178Z,76.96
2023-01-30T14:48:10.239Z,77.42
2023-01-30T14:50:27.447Z,76.47
2023-01-30T14:52:44.774Z,76.76
2023-01-30T14:55:02.072Z,76.99
2023-01-30T14:57:19.330Z,77.06
2023-01-30T14:59:36.369Z,75.69
2023-01-30T15:01:53.469Z,76.26
2023-01-30T15:04:10.908Z,76.31
2023-01-30T15:06:28.169Z,76.49
2023-01-30T15:08:46.460Z,76.28
2023-01-30T15:11:03.545Z,76.74
2023-01-30T15:13:20.585Z,76.97
2023-01-30T15:15:37.520Z,76.73
2023-01-30T15:18:06.967Z,76.94
2023-01-30T15:20:26.504Z,76.99
2023-01-30T15:22:44.445Z,77.06
2023-01-30T15:25:01.358Z,77.51
2023-01-30T15:27:18.426Z,77.93
2023-01-30T15:29:36.794Z,76.33
2023-01-30T15:31:54.149Z,76.06
2023-01-30T15:34:12.235Z,75.55
2023-01-30T15:36:29.568Z,76.46
2023-01-30T15:38:46.856Z,75.76
2023-01-30T15:41:03.845Z,76.27
2023-01-30T15:43:20.782Z,77.14
2023-01-30T15:45:37.832Z,77.06
2023-01-30T15:47:55.130Z,77.33
2023-01-30T15:50:13.104Z,77.57
2023-01-30T15:52:30.135Z,78.25
2023-01-30T15:54:49.545Z,78.34
2023-01-30T15:57:06.901Z,78.40
2023-01-30T15:59:23.924Z,77.95
2023-01-30T16:01:41.196Z,79.14
2023-01-30T16:03:58.437Z,78.84
2023-01-30T16:06:15.782Z,79.33
2023-01-30T16:08:32.789Z,80.08
2023-01-30T16:10:50.100Z,79.62
2023-01-30T16:13:07.395Z,79.54
2023-01-30T16:15:24.842Z,78.95
2023-01-30T16:17:41.740Z,78.40
2023-01-30T16:19:59.167Z,77.92
2023-01-30T16:22:16.553Z,78.66
2023-01-30T16:24:34.122Z,78.18
2023-01-30T16:26:51.119Z,77.93
2023-01-30T16:29:09.286Z,78.60
2023-01-30T16:31:26.878Z,78.77
2023-01-30T16:33:43.916Z,78.51
2023-01-30T16:36:01.042Z,78.12
2023-01-30T16:38:20.854Z,78.52
2023-01-30T16:40:38.267Z,78.82
2023-01-30T16:42:55.295Z,79.54
2023-01-30T16:45:13.446Z,79.19
2023-01-30T16:47:34.637Z,78.77
2023-01-30T16:49:52.965Z,79.08
2023-01-30T16:52:10.383Z,79.12
2023-01-30T16:54:27.890Z,80.08
2023-01-30T16:56:44.855Z,80.34
2023-01-30T16:59:01.863Z,81.50
2023-01-30T17:01:19.353Z,80.91
2023-01-30T17:03:36.516Z,81.73
2023-01-30T17:05:53.872Z,82.60
2023-01-30T17:08:10.944Z,83.05
2023-01-30T17:10:28.043Z,83.54
2023-01-30T17:12:45.288Z,84.32
2023-01-30T17:15:03.372Z,83.88
2023-01-30T17:17:20.311Z,84.80
2023-01-30T17:19:38.621Z,84.09
2023-01-30T17:21:55.907Z,84.52
2023-01-30T17:24:12.916Z,84.61
2023-01-30T17:26:30.894Z,84.73
2023-01-30T17:28:47.975Z,84.91
2023-01-30T17:31:05.066Z,86.13
2023-01-30T17:33:22.460Z,84.85
2023-01-30T17:35:39.536Z,85.35
2023-01-30T17:38:05.398Z,85.45
2023-01-30T17:40:23.396Z,86.70
2023-01-30T17:42:40.542Z,86.03
2023-01-30T17:44:58.585Z,85.14
2023-01-30T17:47:15.950Z,86.53
2023-01-30T17:49:33.171Z,86.28
2023-01-30T17:51:50.169Z,86.74
2023-01-30T17:54:07.207Z,87.31
2023-01-30T17:56:24.280Z,87.66
2023-01-30T17:58:42.316Z,86.35
2023-01-30T18:00:59.689Z,86.02
2023-01-30T18:03:16.665Z,86.53
2023-01-30T18:05:33.797Z,87.50
2023-01-30T18:07:50.900Z,86.62
2023-01-30T18:10:08.144Z,87.03
2023-01-30T18:12:26.195Z,86.10
2023-01-30T18:14:43.338Z,86.04
2023-01-30T18:17:00.806Z,85.23
2023-01-30T18:19:17.747Z,85.59
2023-01-30T18:21:34.689Z,86.57
2023-01-30T18:23:51.770Z,85.93
2023-01-30T18:26:08.652Z,84.59
2023-01-30T18:28:25.691Z,84.18
2023-01-30T18:30:42.974Z,82.74
2023-01-30T18:33:00.321Z,84.13
2023-01-30T18:35:18.669Z,83.29
2023-01-30T18:37:36.017Z,82.18
2023-01-30T18:39:53.346Z,83.36
2023-01-30T18:42:10.491Z,82.29
2023-01-30T18:44:27.779Z,82.37
2023-01-30T18:46:44.851Z,82.89
2023-01-30T18:49:01.929Z,81.54
2023-01-30T18:51:19.301Z,81.50
2023-01-30T18:53:36.647Z,81.80
2023-01-30T18:55:53.727Z,82.77
2023-01-30T18:58:10.732Z,82.44
2023-01-30T19:00:29.038Z,83.15
2023-01-30T19:02:46.488Z,82.87
2023-01-30T19:05:03.884Z,83.14
2023-01-30T19:07:21.235Z,81.80
2023-01-30T19:09:39.249Z,82.09
2023-01-30T19:11:56.260Z,81.97
2023-01-30T19:14:13.208Z,81.32
2023-01-30T19:16:30.274Z,81.21
2023-01-30T19:18:47.411Z,81.10
2023-01-30T19:21:04.373Z,82.38
2023-01-30T19:23:21.400Z,81.86
2023-01-30T19:25:38.707Z,81.78
2023-01-30T19:27:56.864Z,82.14
2023-01-30T19:30:14.985Z,82.21
2023-01-30T19:32:32.410Z,81.48
2023-01-30T19:34:50.810Z,81.85
2023-01-30T19:37:08.144Z,82.16
2023-01-30T19:39:25.122Z,82.18
2023-01-30T19:41:43.415Z,82.22
2023-01-30T19:44:00.719Z,83.11
2023-01-30T19:46:17.842Z,83.03
2023-01-30T19:48:35.129Z,82.51
2023-01-30T19:50:52.409Z,82.76
2023-01-30T19:53:09.743Z,82.22
2023-01-30T19:55:27.663Z,82.24
2023-01-30T19:57:44.931Z,82.01
2023-01-30T20:00:02.879Z,81.14
2023-01-30T20:02:19.957Z,81.45
2023-01-30T20:04:37.212Z,81.49
2023-01-30T20:06:54.228Z,81.62
2023-01-30T20:09:11.542Z,81.71
2023-01-30T20:11:28.855Z,82.29
2023-01-30T20:13:46.156Z,82.09
2023-01-30T20:16:06.390Z,82.92
2023-01-30T20:18:23.772Z,82.62
2023-01-30T20:20:41.848Z,82.19
2023-01-30T20:22:58.831Z,82.15
2023-01-30T20:25:16.104Z,83.02
2023-01-30T20:27:33.324Z,83.36
2023-01-30T20:29:50.297Z,83.58
2023-01-30T20:32:07.500Z,83.04
2023-01-30T20:34:24.647Z,83.42
2023-01-30T20:36:41.759Z,83.24
2023-01-30T20:38:58.859Z,83.77
2023-01-30T20:41:15.902Z,84.90
2023-01-30T20:43:33.193Z,84.92
2023-01-30T20:45:51.217Z,85.05
2023-01-30T20:48:08.267Z,83.33
2023-01-30T20:50:26.326Z,83.00
2023-01-30T20:52:43.668Z,82.97
2023-01-30T20:55:00.812Z,83.85
2023-01-30T20:57:17.833Z,81.92
2023-01-30T20:59:35.226Z,82.37
2023-01-30T21:01:52.558Z,82.38
2023-01-30T21:04:09.715Z,83.12
2023-01-30T21:06:41.699Z,82.61
2023-01-30T21:09:02.491Z,82.78
2023-01-30T21:11:19.797Z,82.74
2023-01-30T21:13:37.015Z,81.45
2023-01-30T21:15:54.078Z,81.00
2023-01-30T21:18:11.374Z,80.68
2023-01-30T21:20:28.303Z,79.26
2023-01-30T21:22:45.669Z,79.89
2023-01-30T21:25:02.591Z,80.10
2023-01-30T21:27:19.922Z,79.71
2023-01-30T21:29:37.261Z,79.87
2023-01-30T21:31:55.568Z,79.80
2023-01-30T21:34:12.750Z,78.61
2023-01-30T21:36:29.824Z,78.31
2023-01-30T21:38:46.749Z,78.04
2023-01-30T21:41:04.085Z,79.52
2023-01-30T21:43:21.167Z,78.84
2023-01-30T21:45:39.081Z,79.29
2023-01-30T21:47:56.794Z,78.48
2023-01-30T21:50:13.767Z,78.33
2023-01-30T21:52:30.862Z,79.09
2023-01-30T21:54:47.887Z,79.64
2023-01-30T21:57:05.231Z,79.10
2023-01-30T21:59:22.216Z,79.47
2023-01-30T22:01:39.366Z,79.82
2023-01-30T22:03:56.615Z,79.94
2023-01-30T22:06:13.721Z,79.92
2023-01-30T22:08:30.705Z,79.73
2023-01-30T22:10:48.816Z,81.07
2023-01-30T22:13:06.230Z,80.18
2023-01-30T22:15:23.156Z,80.12
2023-01-30T22:17:40.137Z,80.71
2023-01-30T22:19:57.193Z,81.02
2023-01-30T22:22:14.508Z,81.82
2023-01-30T22:24:31.604Z,80.57
2023-01-30T22:26:48.676Z,80.63
2023-01-30T22:29:06.616Z,79.64
2023-01-30T22:31:23.873Z,80.87
2023-01-30T22:33:41.043Z,81.19
2023-01-30T22:35:58.108Z,80.84
2023-01-30T22:38:15.449Z,80.57
2023-01-30T22:40:32.782Z,81.03
2023-01-30T22:42:50.143Z,81.49
2023-01-30T22:45:07.148Z,81.20
2023-01-30T22:47:24.372Z,81.24
2023-01-30T22:49:41.421Z,82.52
2023-01-30T22:51:58.483Z,82.19
2023-01-30T22:54:15.803Z,81.82
2023-01-30T22:56:32.873Z,81.50
2023-01-30T22:58:50.246Z,82.20
2023-01-30T23:01:07.572Z,81.85
2023-01-30T23:03:24.681Z,82.53
2023-01-30T23:05:41.731Z,82.18
2023-01-30T23:07:58.819Z,82.42
2023-01-30T23:10:17.113Z,82.45
2023-01-30T23:12:34.440Z,82.75
2023-01-30T23:14:51.643Z,83.30
2023-01-30T23:17:08.923Z,83.10
2023-01-30T23:19:25.995Z,81.97
2023-01-30T23:21:43.308Z,83.00
2023-01-30T23:24:00.334Z,82.48
2023-01-30T23:26:17.344Z,81.99
2023-01-30T23:28:35.457Z,82.96
2023-01-30T23:30:52.485Z,83.79
2023-01-30T23:33:09.816Z,83.90
2023-01-30T23:35:26.928Z,84.27
2023-01-30T23:37:43.852Z,84.80
2023-01-30T23:40:02.184Z,84.23
2023-01-30T23:42:19.607Z,84.97
2023-01-30T23:44:37.572Z,84.23
2023-01-30T23:46:54.634Z,84.57
2023-01-30T23:49:11.630Z,84.96
2023-01-30T23:51:28.798Z,83.71
2023-01-30T23:53:45.943Z,85.15
2023-01-30T23:56:02.963Z,84.69
2023-01-30T23:58:20.422Z,83.77
